Time;durP1;ratioP1;P1;durP2;ratioP2;P2;SDS_P1;SDS_P2;PMS_P1;PMS_P2;Temp;Humidity;BMP_temperature;BMP_pressure;BME280_temperature;BME280_humidity;BME280_pressure;Samples;Min_cycle;Max_cycle;Signal;HPM_P1;HPM_P2
2022/10/03 00:02:18;;;;;;;5.13;3.60;;;;;;;14.78;nan;100286.72;4919864;29;20203;-73
2022/10/03 00:05:01;;;;;;;4.22;2.75;;;;;;;14.82;nan;100292.63;4919819;29;20281;-74
2022/10/03 00:08:02;;;;;;;2.95;2.65;;;;;;;14.84;nan;100303.97;4921399;29;20210;-74
2022/10/03 00:10:55;;;;;;;3.53;2.65;;;;;;;14.84;nan;100306.59;4921723;29;20725;-73
2022/10/03 00:14:03;;;;;;;4.90;3.08;;;;;;;14.85;nan;100302.16;4922976;29;20656;-75
2022/10/03 00:17:06;;;;;;;3.25;1.70;;;;;;;14.85;nan;100307.44;4937149;28;20797;-74
2022/10/03 00:20:30;;;;;;;2.15;1.95;;;;;;;14.82;nan;100313.81;4928614;29;20237;-74
2022/10/03 00:23:03;;;;;;;2.08;1.30;;;;;;;14.78;nan;100320.28;4900747;29;20191;-75
2022/10/03 00:25:43;;;;;;;3.13;1.40;;;;;;;14.80;nan;100339.53;4900576;29;20203;-74
2022/10/03 00:28:36;;;;;;;1.75;1.60;;;;;;;14.80;nan;100331.59;4917015;29;20221;-74
2022/10/03 00:31:15;;;;;;;2.67;1.73;;;;;;;14.83;nan;100334.88;4937474;29;20226;-74
2022/10/03 00:33:50;;;;;;;1.80;1.00;;;;;;;14.85;nan;100332.09;4922845;29;20679;-74
2022/10/03 00:36:21;;;;;;;1.10;0.90;;;;;;;14.86;nan;100325.03;4922896;29;20212;-74
2022/10/03 00:39:10;;;;;;;2.13;1.17;;;;;;;14.86;nan;100319.75;4922318;29;20858;-73
2022/10/03 00:41:36;;;;;;;1.23;0.90;;;;;;;14.85;nan;100324.16;4922563;29;20219;-75
2022/10/03 00:44:22;;;;;;;1.50;0.83;;;;;;;14.87;nan;100334.66;4922416;28;20277;-75
2022/10/03 00:47:09;;;;;;;3.17;1.63;;;;;;;14.84;nan;100325.13;4922370;28;20207;-73
2022/10/03 00:49:59;;;;;;;1.58;1.25;;;;;;;14.82;nan;100332.31;4922435;29;20794;-73
2022/10/03 00:52:32;;;;;;;2.88;1.42;;;;;;;14.81;nan;100338.56;4922364;29;20703;-74
2022/10/03 00:55:22;;;;;;;2.58;1.60;;;;;;;14.78;nan;100336.13;4921948;29;20190;-74
2022/10/03 00:57:50;;;;;;;5.22;1.30;;;;;;;14.76;nan;100340.69;4922465;29;20198;-73
2022/10/03 01:00:19;;;;;;;3.13;1.63;;;;;;;14.74;nan;100346.09;4923908;29;20875;-75
2022/10/03 01:02:59;;;;;;;2.25;1.40;;;;;;;14.72;nan;100360.38;4925679;29;20767;-73
2022/10/03 01:05:44;;;;;;;2.70;2.05;;;;;;;14.71;nan;100356.00;4926087;29;20718;-74
2022/10/03 01:08:31;;;;;;;2.38;1.90;;;;;;;14.70;nan;100365.75;4926249;29;20210;-74
2022/10/03 01:11:23;;;;;;;2.80;1.75;;;;;;;14.70;nan;100362.28;4925749;29;20246;-75
2022/10/03 01:14:17;;;;;;;3.15;1.80;;;;;;;14.69;nan;100372.00;4926147;29;20274;-73
2022/10/03 01:17:00;;;;;;;3.05;2.53;;;;;;;14.68;nan;100378.22;4926396;29;20210;-73
2022/10/03 01:19:45;;;;;;;7.57;4.22;;;;;;;14.65;nan;100378.44;4924844;29;20211;-74
2022/10/03 01:22:35;;;;;;;3.40;2.60;;;;;;;14.63;nan;100377.69;4926278;29;20496;-74
2022/10/03 01:25:39;;;;;;;3.42;3.10;;;;;;;14.62;nan;100383.09;4925759;29;20191;-74
2022/10/03 01:31:28;;;;;;;5.35;4.78;;;;;;;14.59;nan;100385.00;4925818;29;20274;-74
2022/10/03 01:34:09;;;;;;;6.75;5.30;;;;;;;14.62;nan;100373.38;4926002;29;20480;-75
2022/10/03 01:36:48;;;;;;;5.57;5.05;;;;;;;14.62;nan;100368.06;4926657;29;20394;-74
2022/10/03 01:39:20;;;;;;;6.10;4.22;;;;;;;14.62;nan;100372.53;4925546;29;20304;-75
2022/10/03 01:42:03;;;;;;;5.70;4.95;;;;;;;14.60;nan;100376.09;4925334;29;20234;-75
2022/10/03 01:44:40;;;;;;;5.00;4.25;;;;;;;14.58;nan;100383.31;4925681;29;20215;-73
2022/10/03 01:47:17;;;;;;;6.80;5.40;;;;;;;14.56;nan;100381.72;4925438;29;20222;-74
2022/10/03 01:49:55;;;;;;;6.90;4.90;;;;;;;14.56;nan;100377.28;4924819;29;20838;-75
2022/10/03 01:52:36;;;;;;;6.22;4.95;;;;;;;14.52;nan;100380.19;4925301;29;20237;-74
2022/10/03 01:55:18;;;;;;;6.85;5.85;;;;;;;14.49;nan;100385.69;4923665;29;20735;-74
2022/10/03 01:57:59;;;;;;;7.13;6.03;;;;;;;14.48;nan;100384.00;4925428;29;20195;-74
2022/10/03 02:00:34;;;;;;;9.63;6.32;;;;;;;14.48;nan;100389.28;4925158;29;20223;-74
2022/10/03 02:03:19;;;;;;;7.88;6.20;;;;;;;14.48;nan;100381.38;4925186;29;20203;-74
2022/10/03 02:06:05;;;;;;;8.52;6.18;;;;;;;14.46;nan;100376.16;4924518;29;21184;-75
2022/10/03 02:09:06;;;;;;;8.48;6.60;;;;;;;14.44;nan;100375.41;4924786;29;20215;-75
2022/10/03 02:11:50;;;;;;;9.05;7.35;;;;;;;14.38;nan;100368.75;4923983;29;20273;-74
2022/10/03 02:14:30;;;;;;;11.13;8.05;;;;;;;14.34;nan;100367.28;4925132;28;20235;-74
2022/10/03 02:17:11;;;;;;;10.63;7.20;;;;;;;14.32;nan;100369.16;4924239;29;20273;-74
2022/10/03 02:20:13;;;;;;;8.40;6.75;;;;;;;14.30;nan;100370.22;4924652;29;20200;-74
2022/10/03 02:22:45;;;;;;;10.40;8.27;;;;;;;14.25;nan;100375.81;4924110;29;20258;-75
2022/10/03 02:25:22;;;;;;;11.98;9.50;;;;;;;14.22;nan;100377.81;4916701;28;20305;-75
2022/10/03 02:28:13;;;;;;;11.10;8.48;;;;;;;14.17;nan;100378.94;4927582;29;20340;-74
2022/10/03 02:30:50;;;;;;;12.45;9.07;;;;;;;14.16;nan;100387.84;4924064;28;20280;-75
2022/10/03 02:33:28;;;;;;;13.68;10.00;;;;;;;14.16;nan;100392.28;4924421;29;20201;-74
2022/10/03 02:36:21;;;;;;;12.25;8.85;;;;;;;14.16;nan;100387.00;4924239;29;20276;-74
2022/10/03 02:39:03;;;;;;;12.30;8.20;;;;;;;14.15;nan;100377.38;4924074;29;20194;-74
2022/10/03 02:42:00;;;;;;;11.65;8.90;;;;;;;14.14;nan;100384.44;4923989;29;20209;-74
2022/10/03 02:44:45;;;;;;;13.43;9.18;;;;;;;14.11;nan;100376.72;4924378;29;20430;-74
2022/10/03 02:47:41;;;;;;;10.55;9.25;;;;;;;14.12;nan;100377.56;4923779;29;21137;-75
2022/10/03 02:50:22;;;;;;;12.13;9.35;;;;;;;14.10;nan;100382.13;4923320;29;20269;-75
2022/10/03 02:53:08;;;;;;;10.95;7.95;;;;;;;14.08;nan;100373.44;4923630;29;20194;-76
2022/10/03 02:55:49;;;;;;;10.98;7.80;;;;;;;14.05;nan;100365.72;4924146;29;20200;-74
2022/10/03 02:58:17;;;;;;;13.10;8.90;;;;;;;14.03;nan;100375.53;4923970;29;20248;-74
2022/10/03 03:01:33;;;;;;;10.30;7.13;;;;;;;13.99;nan;100377.56;4923883;28;20218;-74
2022/10/03 03:04:36;;;;;;;9.18;6.57;;;;;;;13.96;nan;100377.75;4924887;29;20196;-75
2022/10/03 03:07:18;;;;;;;8.27;6.40;;;;;;;13.93;nan;100383.22;4923625;29;20204;-74
2022/10/03 03:10:14;;;;;;;6.30;4.80;;;;;;;13.90;nan;100378.13;4922643;29;20229;-74
2022/10/03 03:13:17;;;;;;;7.50;4.93;;;;;;;13.86;nan;100384.56;4923531;29;20241;-74
2022/10/03 03:16:27;;;;;;;5.60;4.40;;;;;;;13.81;nan;100390.16;4923795;29;20197;-75
2022/10/03 03:19:23;;;;;;;4.03;3.53;;;;;;;13.78;nan;100386.88;4915108;29;20194;-75
2022/10/03 03:22:10;;;;;;;5.05;3.40;;;;;;;13.77;nan;100385.16;4923755;29;20222;-74
2022/10/03 03:24:51;;;;;;;4.85;3.97;;;;;;;13.77;nan;100390.44;4920334;28;20233;-75
2022/10/03 03:27:25;;;;;;;6.85;3.33;;;;;;;13.74;nan;100383.56;4923523;29;20186;-75
2022/10/03 03:30:11;;;;;;;3.90;3.20;;;;;;;13.71;nan;100386.41;4923371;29;20228;-75
2022/10/03 03:33:03;;;;;;;9.65;3.15;;;;;;;13.68;nan;100376.03;4923245;28;20216;-74
2022/10/03 03:35:35;;;;;;;3.88;3.22;;;;;;;13.64;nan;100369.28;4923426;29;20268;-76
2022/10/03 03:38:15;;;;;;;3.60;3.30;;;;;;;13.61;nan;100358.88;4923339;29;20253;-75
2022/10/03 03:41:04;;;;;;;3.88;3.00;;;;;;;13.59;nan;100359.00;4923249;29;20680;-74
2022/10/03 03:43:33;;;;;;;3.42;2.90;;;;;;;13.54;nan;100354.97;4923835;29;20186;-76
2022/10/03 03:46:07;;;;;;;4.47;3.03;;;;;;;13.52;nan;100356.84;4923329;29;20198;-74
2022/10/03 03:49:00;;;;;;;3.10;2.72;;;;;;;13.46;nan;100361.56;4907509;28;20244;-76
2022/10/03 03:51:44;;;;;;;3.10;2.63;;;;;;;13.44;nan;100362.59;4909737;29;20222;-75
2022/10/03 03:54:25;;;;;;;6.95;3.75;;;;;;;13.41;nan;100368.09;4910354;29;20199;-76
2022/10/03 03:57:00;;;;;;;3.50;3.15;;;;;;;13.38;nan;100363.84;4907796;29;20195;-74
2022/10/03 03:59:43;;;;;;;5.43;3.05;;;;;;;13.34;nan;100365.00;4909567;29;20273;-75
2022/10/03 04:02:45;;;;;;;4.63;3.58;;;;;;;13.32;nan;100369.53;4908051;29;20197;-76
2022/10/03 04:05:52;;;;;;;5.03;3.90;;;;;;;13.30;nan;100367.91;4907644;29;20232;-75
2022/10/03 04:08:29;;;;;;;6.55;4.18;;;;;;;13.28;nan;100368.00;4909489;29;20646;-76
2022/10/03 04:11:38;;;;;;;6.40;4.47;;;;;;;13.26;nan;100376.03;4947618;23;20220;-77
2022/10/03 04:14:32;;;;;;;5.60;4.53;;;;;;;13.27;nan;100377.72;4897743;29;20281;-77
2022/10/03 04:20:43;;;;;;;8.30;5.10;;;;;;;13.25;nan;100376.94;4903112;29;20240;-77
2022/10/03 04:23:48;;;;;;;7.32;5.25;;;;;;;13.30;nan;100381.97;4894620;29;20203;-77
2022/10/03 04:26:23;;;;;;;5.75;4.60;;;;;;;13.30;nan;100381.97;4892507;29;20191;-77
2022/10/03 04:28:52;;;;;;;6.80;4.82;;;;;;;13.31;nan;100386.28;4892087;29;20722;-79
2022/10/03 04:31:32;;;;;;;6.78;5.80;;;;;;;13.34;nan;100387.88;4894819;29;20202;-80
2022/10/03 04:34:15;;;;;;;7.03;5.13;;;;;;;13.33;nan;100387.03;4895146;29;20282;-80
2022/10/03 04:36:45;;;;;;;10.77;7.55;;;;;;;13.32;nan;100395.06;4901312;29;20194;-80
2022/10/03 04:39:26;;;;;;;9.15;5.88;;;;;;;13.31;nan;100396.00;4901207;29;20191;-80
2022/10/03 04:42:09;;;;;;;9.13;6.00;;;;;;;13.30;nan;100399.59;4899552;29;20530;-80
2022/10/03 04:45:03;;;;;;;9.02;6.90;;;;;;;13.28;nan;100394.38;4899448;29;20183;-80
2022/10/03 04:47:47;;;;;;;6.55;5.63;;;;;;;13.25;nan;100395.41;4900599;29;20727;-80
2022/10/03 04:50:56;;;;;;;7.72;6.50;;;;;;;13.19;nan;100379.94;4900529;29;20225;-80
2022/10/03 04:54:01;;;;;;;12.18;7.13;;;;;;;13.12;nan;100388.34;4900479;29;20209;-80
2022/10/03 04:56:32;;;;;;;9.40;6.35;;;;;;;13.07;nan;100389.47;4898015;29;20229;-80
2022/10/03 04:59:08;;;;;;;9.52;6.72;;;;;;;13.06;nan;100390.41;4916229;29;20260;-80
2022/10/03 05:01:51;;;;;;;11.82;7.43;;;;;;;13.05;nan;100386.09;4915928;29;20214;-80
2022/10/03 05:04:52;;;;;;;10.45;6.70;;;;;;;13.02;nan;100394.19;4900712;29;20552;-80
2022/10/03 05:07:42;;;;;;;7.30;5.38;;;;;;;12.95;nan;100392.84;4900490;29;20209;-80
2022/10/03 05:10:39;;;;;;;9.45;6.07;;;;;;;12.90;nan;100391.44;4900385;29;20699;-80
2022/10/03 05:13:31;;;;;;;8.57;5.65;;;;;;;12.87;nan;100394.28;4900888;29;20278;-80
2022/10/03 05:15:56;;;;;;;8.50;6.50;;;;;;;12.83;nan;100396.25;4899935;29;20205;-80
2022/10/03 05:18:33;;;;;;;9.90;6.00;;;;;;;12.81;nan;100403.41;4900349;29;20294;-80
2022/10/03 05:21:05;;;;;;;10.20;7.82;;;;;;;12.75;nan;100407.25;4900422;29;20298;-80
2022/10/03 05:24:02;;;;;;;11.82;8.95;;;;;;;12.69;nan;100409.41;4899489;29;20801;-80
2022/10/03 05:26:33;;;;;;;16.30;8.40;;;;;;;12.66;nan;100414.84;4899908;29;20202;-79
2022/10/03 05:29:24;;;;;;;10.75;8.65;;;;;;;12.66;nan;100412.22;4898875;29;20222;-80
2022/10/03 05:32:10;;;;;;;14.60;10.80;;;;;;;12.66;nan;100420.97;4901816;29;20833;-80
2022/10/03 05:35:00;;;;;;;62.60;13.77;;;;;;;12.64;nan;100422.88;4900373;29;20210;-80
2022/10/03 05:37:41;;;;;;;25.30;11.38;;;;;;;12.61;nan;100426.53;4902130;29;20286;-80
2022/10/03 05:40:28;;;;;;;43.30;13.43;;;;;;;12.60;nan;100430.09;4900609;29;20205;-80
2022/10/03 05:43:03;;;;;;;55.10;14.77;;;;;;;12.60;nan;100429.25;4901093;29;20215;-80
2022/10/03 05:45:46;;;;;;;35.80;12.05;;;;;;;12.63;nan;100429.06;4900284;29;20309;-80
2022/10/03 05:48:24;;;;;;;38.03;14.60;;;;;;;12.65;nan;100429.81;4897304;29;20289;-80
2022/10/03 05:51:38;;;;;;;19.92;11.88;;;;;;;12.65;nan;100440.38;4894339;29;20841;-80
2022/10/03 05:54:18;;;;;;;17.75;11.13;;;;;;;12.66;nan;100438.56;4896926;29;20203;-80
2022/10/03 05:57:04;;;;;;;32.88;12.35;;;;;;;12.63;nan;100442.25;4896449;29;20190;-79
2022/10/03 05:59:54;;;;;;;31.38;13.10;;;;;;;12.57;nan;100445.25;4898541;29;20199;-80
2022/10/03 06:02:47;;;;;;;17.38;10.55;;;;;;;12.55;nan;100449.75;4900010;29;20321;-80
2022/10/03 06:05:40;;;;;;;20.15;11.48;;;;;;;12.56;nan;100454.09;4898218;29;20318;-79
2022/10/03 06:08:38;;;;;;;24.33;12.23;;;;;;;12.55;nan;100457.66;4894175;29;20604;-79
2022/10/03 06:11:19;;;;;;;20.38;11.32;;;;;;;12.61;nan;100459.94;4894396;29;20258;-79
2022/10/03 06:14:06;;;;;;;24.00;12.65;;;;;;;12.60;nan;100472.25;4894822;29;20202;-79
2022/10/03 06:16:40;;;;;;;17.63;11.20;;;;;;;12.61;nan;100462.59;4893485;29;20194;-79
2022/10/03 06:19:11;;;;;;;22.23;12.40;;;;;;;12.62;nan;100465.13;4893516;29;20195;-79
2022/10/03 06:22:27;;;;;;;20.92;12.57;;;;;;;12.70;nan;100466.47;4893180;29;20266;-79
2022/10/03 06:25:10;;;;;;;21.90;11.63;;;;;;;12.74;nan;100478.50;4907190;29;20219;-79
2022/10/03 06:28:17;;;;;;;19.70;11.60;;;;;;;12.76;nan;100471.38;4906256;29;20198;-79
2022/10/03 06:31:39;;;;;;;13.65;9.25;;;;;;;12.74;nan;100473.25;4906384;29;20182;-80
2022/10/03 06:34:43;;;;;;;13.70;8.13;;;;;;;12.71;nan;100478.69;4907412;29;20194;-79
2022/10/03 06:37:29;;;;;;;14.90;9.05;;;;;;;12.68;nan;100478.88;4885527;29;20226;-79
2022/10/03 06:40:10;;;;;;;14.18;8.82;;;;;;;12.70;nan;100480.50;4885715;29;20191;-79
2022/10/03 06:42:59;;;;;;;13.70;8.40;;;;;;;12.73;nan;100492.63;4894448;29;20221;-79
2022/10/03 06:45:46;;;;;;;14.13;8.45;;;;;;;12.73;nan;100490.84;4908009;29;20278;-79
2022/10/03 06:48:23;;;;;;;11.38;7.43;;;;;;;12.70;nan;100490.19;4908220;29;20198;-79
2022/10/03 06:51:16;;;;;;;12.07;7.57;;;;;;;12.66;nan;100496.56;4907411;29;20206;-80
2022/10/03 06:54:05;;;;;;;10.93;7.65;;;;;;;12.64;nan;100488.75;4907115;29;20199;-80
2022/10/03 06:57:06;;;;;;;14.32;7.80;;;;;;;12.66;nan;100496.56;4908165;29;20202;-80
2022/10/03 06:59:53;;;;;;;12.57;8.38;;;;;;;12.70;nan;100488.41;4907587;29;20272;-80
2022/10/03 07:02:38;;;;;;;11.52;7.22;;;;;;;12.77;nan;100489.75;4907392;29;20230;-80
2022/10/03 07:05:24;;;;;;;13.95;7.93;;;;;;;12.84;nan;100496.34;4906987;29;20209;-80
2022/10/03 07:08:20;;;;;;;11.25;7.22;;;;;;;12.91;nan;100488.06;4909224;29;20209;-80
2022/10/03 07:10:54;;;;;;;15.43;7.35;;;;;;;12.92;nan;100480.06;4908070;29;20201;-80
2022/10/03 07:13:39;;;;;;;17.25;7.65;;;;;;;12.98;nan;100487.59;4908275;29;20206;-80
2022/10/03 07:16:30;;;;;;;13.68;7.22;;;;;;;13.05;nan;100488.94;4907512;29;20195;-80
2022/10/03 07:19:25;;;;;;;11.38;6.53;;;;;;;13.17;nan;100497.06;4907524;29;20659;-80
2022/10/03 07:22:32;;;;;;;11.05;7.40;;;;;;;13.30;nan;100508.59;4889573;29;20238;-80
2022/10/03 07:25:32;;;;;;;10.82;6.25;;;;;;;13.38;nan;100510.78;4906944;29;20194;-80
2022/10/03 07:28:03;;;;;;;9.77;6.20;;;;;;;13.45;nan;100517.41;4907733;29;20197;-80
2022/10/03 07:30:54;;;;;;;7.80;6.15;;;;;;;13.52;nan;100505.50;4907555;29;20305;-80
2022/10/03 07:34:07;;;;;;;6.57;5.35;;;;;;;13.58;nan;100512.19;4907055;29;20282;-79
2022/10/03 07:40:05;;;;;;;11.00;7.20;;;;;;;13.71;nan;100526.31;4907152;29;20186;-80
2022/10/03 07:42:39;;;;;;;10.57;6.72;;;;;;;13.75;nan;100522.56;4906810;29;20557;-80
2022/10/03 07:45:11;;;;;;;8.20;6.00;;;;;;;13.79;nan;100524.06;4907160;29;20228;-80
2022/10/03 07:48:04;;;;;;;10.20;5.18;;;;;;;13.83;nan;100517.66;4907629;29;20195;-80
2022/10/03 07:50:49;;;;;;;7.13;6.13;;;;;;;13.89;nan;100519.91;4907289;29;20214;-80
2022/10/03 07:53:33;;;;;;;6.75;4.90;;;;;;;13.95;nan;100530.06;4906702;29;20869;-80
2022/10/03 07:56:24;;;;;;;8.23;5.47;;;;;;;13.99;nan;100524.59;4905761;29;20800;-80
2022/10/03 07:59:00;;;;;;;9.25;6.43;;;;;;;13.94;nan;100527.53;4907064;29;21223;-80
2022/10/03 08:02:04;;;;;;;9.05;6.32;;;;;;;13.95;nan;100532.72;4906000;29;20217;-80
2022/10/03 08:04:50;;;;;;;7.72;6.22;;;;;;;14.06;nan;100523.28;4907592;29;20217;-80
2022/10/03 08:07:21;;;;;;;9.13;6.30;;;;;;;14.21;nan;100522.31;4907134;29;20264;-80
2022/10/03 08:09:57;;;;;;;8.27;5.57;;;;;;;14.46;nan;100518.06;4906926;29;20891;-80
2022/10/03 08:12:52;;;;;;;7.85;5.15;;;;;;;15.02;nan;100529.38;4906338;29;20234;-80
2022/10/03 08:15:42;;;;;;;4.95;3.72;;;;;;;15.67;nan;100517.84;4906511;29;20202;-80
2022/10/03 08:18:22;;;;;;;7.60;3.90;;;;;;;16.19;nan;100518.59;4909298;29;20652;-80
2022/10/03 08:20:50;;;;;;;7.18;5.03;;;;;;;16.51;nan;100518.88;4906045;29;20202;-79
2022/10/03 08:23:49;;;;;;;7.18;6.45;;;;;;;16.55;nan;100512.38;4903380;29;20671;-79
2022/10/03 08:26:37;;;;;;;6.22;4.60;;;;;;;16.46;nan;100508.59;4904212;29;20194;-79
2022/10/03 08:29:25;;;;;;;7.13;5.20;;;;;;;16.48;nan;100509.34;4904349;29;20873;-79
2022/10/03 08:32:20;;;;;;;4.60;3.63;;;;;;;16.61;nan;100506.63;4904649;29;20270;-79
2022/10/03 08:35:11;;;;;;;6.07;4.97;;;;;;;16.69;nan;100495.44;4892614;29;20190;-80
2022/10/03 08:37:58;;;;;;;4.38;3.65;;;;;;;16.90;nan;100496.50;4905076;29;20191;-80
2022/10/03 08:40:52;;;;;;;3.75;3.08;;;;;;;17.48;nan;100492.00;4904342;29;20202;-80
2022/10/03 08:43:30;;;;;;;3.90;2.97;;;;;;;18.23;nan;100481.69;4904631;29;20198;-80
2022/10/03 08:46:04;;;;;;;3.42;3.13;;;;;;;18.47;nan;100478.78;4904715;29;20202;-80
2022/10/03 08:48:39;;;;;;;4.35;3.28;;;;;;;19.03;nan;100483.88;4904531;29;20673;-80
2022/10/03 08:51:16;;;;;;;2.00;1.80;;;;;;;19.77;nan;100485.53;4903965;29;20218;-80
2022/10/03 08:54:06;;;;;;;2.25;2.05;;;;;;;19.96;nan;100498.91;4903916;29;20826;-80
2022/10/03 08:57:05;;;;;;;2.95;2.50;;;;;;;19.63;nan;100487.56;4904604;29;20233;-80
2022/10/03 08:59:51;;;;;;;2.92;1.85;;;;;;;19.15;nan;100492.66;4908815;29;20518;-80
2022/10/03 09:02:20;;;;;;;2.58;1.90;;;;;;;18.70;nan;100485.72;4908903;29;20216;-81
2022/10/03 09:05:20;;;;;;;2.90;2.47;;;;;;;18.55;nan;100485.19;4907531;29;20235;-81
2022/10/03 09:08:04;;;;;;;3.22;2.92;;;;;;;18.95;nan;100494.34;4905029;29;20191;-80
2022/10/03 09:10:57;;;;;;;2.65;1.73;;;;;;;19.13;nan;100497.25;4905611;29;20222;-80
2022/10/03 09:13:41;;;;;;;2.65;2.35;;;;;;;19.07;nan;100495.97;4905130;29;20287;-80
2022/10/03 09:16:28;;;;;;;2.72;2.42;;;;;;;18.90;nan;100497.41;4907320;29;20215;-80
2022/10/03 09:19:23;;;;;;;2.50;2.30;;;;;;;18.77;nan;100494.91;4904318;29;20210;-80
2022/10/03 09:22:10;;;;;;;2.60;2.40;;;;;;;18.62;nan;100496.16;4901709;29;20678;-81
2022/10/03 09:24:54;;;;;;;2.72;2.53;;;;;;;18.47;nan;100505.41;4908385;29;20247;-81
2022/10/03 09:27:27;;;;;;;4.43;3.97;;;;;;;18.28;nan;100500.75;4908413;29;20269;-81
2022/10/03 09:30:15;;;;;;;2.83;2.40;;;;;;;18.07;nan;100509.53;4909760;29;20393;-80
2022/10/03 09:32:51;;;;;;;4.93;3.35;;;;;;;17.87;nan;100504.94;4909002;29;20219;-80
2022/10/03 09:35:44;;;;;;;5.28;2.92;;;;;;;17.62;nan;100506.03;4908418;29;20203;-81
2022/10/03 09:38:28;;;;;;;4.10;3.30;;;;;;;17.55;nan;100512.78;4908014;29;20194;-80
2022/10/03 09:41:32;;;;;;;4.55;3.95;;;;;;;17.56;nan;100510.00;4922256;29;20790;-80
2022/10/03 09:44:18;;;;;;;2.85;2.65;;;;;;;17.48;nan;100507.94;4905919;29;20313;-80
2022/10/03 09:47:21;;;;;;;3.45;2.83;;;;;;;17.63;nan;100510.34;4910344;29;20261;-81
2022/10/03 09:50:26;;;;;;;4.60;2.58;;;;;;;17.93;nan;100509.78;4908409;29;20237;-81
2022/10/03 09:53:14;;;;;;;8.45;2.38;;;;;;;18.11;nan;100495.00;4908724;29;20246;-81
2022/10/03 09:55:42;;;;;;;3.58;3.20;;;;;;;18.21;nan;100499.59;4908509;29;20199;-80
2022/10/03 09:58:10;;;;;;;4.43;2.80;;;;;;;18.24;nan;100499.31;4907200;29;20472;-81
2022/10/03 10:01:13;;;;;;;3.38;2.75;;;;;;;18.41;nan;100495.28;4908328;29;20196;-82
2022/10/03 10:04:03;;;;;;;3.10;2.70;;;;;;;18.42;nan;100487.19;4907883;29;20679;-81
2022/10/03 10:06:44;;;;;;;4.70;2.70;;;;;;;18.44;nan;100487.88;4908191;29;20200;-81
2022/10/03 10:09:55;;;;;;;2.67;2.30;;;;;;;18.60;nan;100484.78;4906617;29;20585;-81
2022/10/03 10:12:42;;;;;;;2.75;2.55;;;;;;;18.73;nan;100482.78;4900798;23;20268;-74
2022/10/03 10:15:32;;;;;;;3.67;2.55;;;;;;;18.80;nan;100485.84;4883250;29;20197;-74
2022/10/03 10:18:00;;;;;;;2.70;2.45;;;;;;;18.88;nan;100479.88;4897977;29;20265;-75
2022/10/03 10:20:45;;;;;;;3.35;3.05;;;;;;;18.89;nan;100482.38;4899264;29;20198;-74
2022/10/03 10:23:18;;;;;;;3.22;2.92;;;;;;;18.87;nan;100486.97;4905212;29;20226;-74
2022/10/03 10:26:21;;;;;;;2.83;2.57;;;;;;;18.91;nan;100482.28;4906601;29;20746;-75
2022/10/03 10:29:40;;;;;;;3.05;2.75;;;;;;;18.95;nan;100473.88;4905938;29;20582;-75
2022/10/03 10:32:43;;;;;;;3.63;3.33;;;;;;;19.06;nan;100485.44;4901922;29;20241;-73
2022/10/03 10:35:20;;;;;;;5.13;4.63;;;;;;;19.08;nan;100489.66;4906613;29;20493;-73
2022/10/03 10:37:55;;;;;;;7.80;3.47;;;;;;;19.01;nan;100478.69;4905566;29;20443;-74
2022/10/03 10:40:26;;;;;;;3.93;2.83;;;;;;;18.99;nan;100477.13;4905655;29;20448;-74
2022/10/03 10:43:07;;;;;;;5.00;3.20;;;;;;;19.02;nan;100475.03;4905686;29;20625;-73
2022/10/03 10:45:57;;;;;;;3.33;3.07;;;;;;;19.13;nan;100470.63;4905724;29;20449;-73
2022/10/03 10:48:47;;;;;;;3.20;2.90;;;;;;;19.17;nan;100469.38;4905539;29;20424;-73
2022/10/03 10:51:50;;;;;;;3.30;3.00;;;;;;;18.98;nan;100467.44;4905450;29;20549;-74
2022/10/03 10:54:37;;;;;;;2.50;2.30;;;;;;;18.67;nan;100470.00;4905608;29;20439;-74
2022/10/03 10:57:39;;;;;;;3.17;2.80;;;;;;;18.56;nan;100470.06;4904934;29;21222;-74
2022/10/03 11:00:38;;;;;;;3.37;3.07;;;;;;;18.46;nan;100464.66;4905970;29;20524;-74
2022/10/03 11:03:40;;;;;;;3.88;3.50;;;;;;;18.41;nan;100463.34;4904694;29;20543;-74
2022/10/03 11:06:30;;;;;;;5.10;3.90;;;;;;;18.42;nan;100457.09;4903295;29;20204;-74
2022/10/03 11:09:21;;;;;;;4.78;3.17;;;;;;;18.53;nan;100451.72;4903243;29;20563;-74
2022/10/03 11:12:05;;;;;;;5.07;3.43;;;;;;;18.65;nan;100455.16;4898233;29;20240;-74
2022/10/03 11:14:56;;;;;;;3.27;2.97;;;;;;;18.70;nan;100451.13;4905494;29;20500;-74
2022/10/03 11:17:38;;;;;;;5.72;3.55;;;;;;;18.74;nan;100452.59;4905291;29;20451;-74
2022/10/03 11:20:31;;;;;;;7.80;4.10;;;;;;;18.65;nan;100445.34;4904557;29;20260;-74
2022/10/03 11:23:11;;;;;;;6.40;4.75;;;;;;;18.51;nan;100448.31;4904910;29;20578;-74
2022/10/03 11:26:05;;;;;;;4.07;3.75;;;;;;;18.44;nan;100452.47;4904887;29;20211;-74
2022/10/03 11:28:59;;;;;;;5.28;3.78;;;;;;;18.40;nan;100451.03;4904524;29;20941;-74
2022/10/03 11:31:59;;;;;;;5.53;4.10;;;;;;;18.41;nan;100453.56;4903206;29;20378;-74
2022/10/03 11:34:56;;;;;;;4.17;3.77;;;;;;;18.41;nan;100453.56;4904654;29;20287;-74
2022/10/03 11:37:42;;;;;;;4.78;3.60;;;;;;;18.43;nan;100453.44;4904379;29;20535;-73
2022/10/03 11:40:27;;;;;;;5.28;4.70;;;;;;;18.42;nan;100438.47;4918776;29;20198;-73
2022/10/03 11:43:44;;;;;;;4.10;3.70;;;;;;;18.43;nan;100442.81;4905014;29;20220;-74
2022/10/03 11:46:43;;;;;;;4.73;3.60;;;;;;;18.51;nan;100448.31;4898972;29;20209;-74
2022/10/03 11:49:27;;;;;;;4.65;3.83;;;;;;;18.53;nan;100441.91;4904768;29;20478;-75
2022/10/03 11:52:19;;;;;;;4.30;3.87;;;;;;;18.50;nan;100444.00;4905364;29;20666;-74
2022/10/03 11:54:49;;;;;;;7.78;4.82;;;;;;;18.40;nan;100443.91;4904804;29;20458;-74
2022/10/03 11:57:25;;;;;;;10.48;3.67;;;;;;;18.39;nan;100447.53;4905009;29;20709;-74
2022/10/03 12:00:09;;;;;;;5.57;4.23;;;;;;;18.31;nan;100439.34;4904387;29;20214;-75
2022/10/03 12:02:56;;;;;;;5.05;4.18;;;;;;;18.20;nan;100440.25;4905473;29;20469;-75
2022/10/03 12:08:53;;;;;;;4.68;3.42;;;;;;;18.08;nan;100439.41;4904029;29;20777;-74
2022/10/03 12:08:55;;;;;;;4.35;3.95;;;;;;;18.07;nan;100434.25;4905034;29;20200;-75
2022/10/03 12:11:32;;;;;;;4.65;3.60;;;;;;;18.10;nan;100440.13;4904363;29;20193;-74
2022/10/03 12:14:12;;;;;;;3.70;3.40;;;;;;;18.16;nan;100433.47;4903384;29;20271;-74
2022/10/03 12:17:05;;;;;;;4.13;3.83;;;;;;;18.21;nan;100430.44;4904433;29;20442;-75
2022/10/03 12:19:41;;;;;;;4.50;4.10;;;;;;;18.18;nan;100420.91;4904409;29;20442;-75
2022/10/03 12:22:12;;;;;;;3.80;3.40;;;;;;;18.19;nan;100425.22;4904955;29;20492;-74
2022/10/03 12:24:44;;;;;;;5.65;4.25;;;;;;;18.16;nan;100420.19;4903890;29;20229;-74
2022/10/03 12:27:29;;;;;;;7.78;4.68;;;;;;;18.18;nan;100423.56;4903547;29;20443;-74
2022/10/03 12:30:11;;;;;;;8.50;4.47;;;;;;;18.21;nan;100412.66;4904137;29;20231;-74
2022/10/03 12:32:47;;;;;;;5.27;4.70;;;;;;;18.20;nan;100418.97;4904177;29;20453;-74
2022/10/03 12:35:25;;;;;;;5.10;3.92;;;;;;;18.23;nan;100416.03;4904128;29;20867;-75
2022/10/03 12:38:18;;;;;;;5.00;4.55;;;;;;;18.24;nan;100414.22;4904189;29;20292;-75
2022/10/03 12:40:54;;;;;;;5.27;4.77;;;;;;;18.25;nan;100405.25;4903420;29;20194;-74
2022/10/03 12:43:39;;;;;;;4.90;4.50;;;;;;;18.26;nan;100410.47;4903674;29;20445;-74
2022/10/03 12:46:43;;;;;;;4.70;3.40;;;;;;;18.27;nan;100413.97;4904006;29;20955;-74
2022/10/03 12:49:28;;;;;;;4.73;4.00;;;;;;;18.26;nan;100423.75;4901873;29;20512;-75
2022/10/03 12:51:58;;;;;;;4.57;4.13;;;;;;;18.26;nan;100417.59;4903783;29;21042;-75
2022/10/03 12:54:33;;;;;;;8.15;5.28;;;;;;;18.24;nan;100411.56;4903422;29;20446;-74
2022/10/03 12:57:21;;;;;;;7.83;4.47;;;;;;;18.28;nan;100413.84;4906486;29;20828;-75
2022/10/03 12:59:58;;;;;;;5.47;4.75;;;;;;;18.26;nan;100413.13;4907130;29;20417;-74
2022/10/03 13:02:40;;;;;;;9.07;5.00;;;;;;;18.20;nan;100402.13;4907846;29;20721;-74
2022/10/03 13:05:29;;;;;;;5.30;4.38;;;;;;;18.18;nan;100394.31;4907394;29;20439;-74
2022/10/03 13:08:05;;;;;;;5.77;5.27;;;;;;;18.21;nan;100395.88;4907468;29;20209;-75
2022/10/03 13:11:00;;;;;;;5.65;4.75;;;;;;;18.20;nan;100396.81;4907133;29;20505;-75
2022/10/03 13:13:36;;;;;;;5.60;5.10;;;;;;;18.21;nan;100394.06;4907063;29;20646;-75
2022/10/03 13:16:06;;;;;;;6.90;5.32;;;;;;;18.20;nan;100388.84;4907508;29;21573;-75
2022/10/03 13:18:40;;;;;;;8.30;5.43;;;;;;;18.13;nan;100385.88;4907435;29;20714;-75
2022/10/03 13:21:25;;;;;;;5.35;4.55;;;;;;;18.17;nan;100381.13;4906625;29;20422;-75